Detall de PIREP

Printer-friendly versionPDF version

[2017/01/06 10:18:00]
Flight IATA:CT1004
Pilot Number:012
Company ICAO:CAT
Aircraft Type:F70/A
PAX:79
Aircraft Registration:PFJ
Departing Airport: LEBL
Destination Airport: LEMD
Alternate Airport:LEVD
Online: VATSIM
Route:SENIA UZ596 NEXAS UN975 ADUXO
Flight Level:F290
No Slew and time accel
No pause
Crash detect
Detect pilot in Cockpit between each 30 and 45 minutes
10:18 Zero fuel Weight: 70393 Lbs, Fuel Weight: 7954 Lbs
10:18 VATSIM:LEBL 061000Z 33012KT 290V020 9999 FEW030 05/M02 Q1030 NOSIG
10:18 VATSIM:LEMD 061000Z 35003KT 310V010 CAVOK 01/M01 Q1028 NOSIG
10:18 XMAS CHARTER
10:19 Parking Brakes off
10:24 Take-off
10:24 Take off Weight: 78039 Lbs
10:24 Wind: 334º @ 012 Knots Heading: 246º
10:24 POS N41º 17´ 09´´ E002º 05´ 05´´
10:24 Gear Up: 159 Knots
10:24 Flaps:1 at 159 Knots
10:24 Flaps:0 at 188 Knots
10:37 TOC
10:37 Fuel Weight: 5945 Lb
10:39 Wind:310º@028 Knots Heading: 275º Ground Speed: 413 Knots Altitude 29511 ft
10:53 TOD
10:53 Fuel Weight: 4484 Lb
10:54 Wind:243º@008 Knots Heading: 247º Ground Speed: 423 Knots Altitude 28786 ft
11:09 Wind:073º@001 Knots Heading: 281º Ground Speed: 219 Knots Altitude 5725 ft
11:09 Flaps:1 at 182 Knots
11:10 Flaps:2 at 200 Knots
11:10 Gear Down: 197 Knots
11:11 Flaps:3 at 171 Knots
11:12 Flaps:4 at 147 Knots
11:15 TouchDown:Rate -262 ft/min Speed: 104 Knots
11:15 VATSIM:LEMD 061100Z 33001KT CAVOK 04/00 Q1028 NOSIG
11:15 Land
11:15 Wind:014º@000 Knots
11:15 Heading: 320º
11:15 Flight Duration: 00:51
11:15 Landing Weight: 73988 Lbs
11:15 POS N40º 28´ 51´´ W003º 32´ 36´´
11:18 Parking brakes on
11:18 Block to Block Duration: 00:59
11:18 Final Fuel: 3476 Lbls
11:18 Spent Fuel: 4477 Lbls
11:18 Flight Length: 285 NM
11:18 TOD Land Length: 99 NM

Exportar CSV

Powered by Drupal - Modified by Danger4k